Time;durP1;ratioP1;P1;durP2;ratioP2;P2;SDS_P1;SDS_P2;PMS_P1;PMS_P2;Temp;Humidity;BMP_temperature;BMP_pressure;BME280_temperature;BME280_humidity;BME280_pressure;Samples;Min_cycle;Max_cycle;Signal;HPM_P1;HPM_P2
2022/05/18 00:01:13;;;;;;;7.17;6.67;;;15.10;99.90;;;;;;5055656;28;20771;-80
2022/05/18 00:03:42;;;;;;;6.93;6.43;;;15.10;99.90;;;;;;5039666;28;20190;-79
2022/05/18 00:06:11;;;;;;;7.00;6.50;;;15.10;99.90;;;;;;5040837;28;20223;-80
2022/05/18 00:08:39;;;;;;;7.20;6.60;;;15.00;99.90;;;;;;5031195;28;20202;-80
2022/05/18 00:11:11;;;;;;;7.73;7.13;;;15.00;99.90;;;;;;5042305;28;20210;-80
2022/05/18 00:13:38;;;;;;;7.27;6.77;;;14.90;99.90;;;;;;5031251;28;20195;-79
2022/05/18 00:16:06;;;;;;;7.20;6.70;;;14.90;99.90;;;;;;5040263;28;20244;-79
2022/05/18 00:18:33;;;;;;;7.37;6.87;;;14.80;99.90;;;;;;5038920;28;20204;-80
2022/05/18 00:21:00;;;;;;;7.40;6.80;;;14.80;99.90;;;;;;5032753;28;20210;-79
2022/05/18 00:23:27;;;;;;;7.43;6.90;;;14.70;99.90;;;;;;5032876;28;20251;-79
2022/05/18 00:25:54;;;;;;;7.30;6.80;;;14.70;99.90;;;;;;5042380;28;20559;-79
2022/05/18 00:28:23;;;;;;;7.30;6.80;;;14.60;99.90;;;;;;5034137;28;20206;-80
2022/05/18 00:30:50;;;;;;;7.77;7.00;;;14.60;99.90;;;;;;5061582;28;20720;-80
2022/05/18 00:33:17;;;;;;;7.73;7.13;;;14.50;99.90;;;;;;5031973;28;20194;-80
2022/05/18 00:35:45;;;;;;;7.63;6.93;;;14.50;99.90;;;;;;5040010;28;20198;-80
2022/05/18 00:38:12;;;;;;;8.10;7.40;;;14.40;99.90;;;;;;5040173;28;20192;-79
2022/05/18 00:40:41;;;;;;;8.07;7.37;;;14.40;99.90;;;;;;5032526;28;20217;-79
2022/05/18 00:43:16;;;;;;;7.70;7.00;;;14.40;99.90;;;;;;5040037;28;20192;-80
2022/05/18 00:45:44;;;;;;;7.10;6.60;;;14.30;99.90;;;;;;5045488;28;20197;-80
2022/05/18 00:48:11;;;;;;;7.80;7.17;;;14.30;99.90;;;;;;5045518;28;20199;-81
2022/05/18 00:50:40;;;;;;;8.20;7.50;;;14.30;99.90;;;;;;5043538;28;20636;-81
2022/05/18 00:53:11;;;;;;;7.77;7.20;;;14.30;99.90;;;;;;5040880;28;20192;-80
2022/05/18 00:55:44;;;;;;;7.73;7.13;;;14.20;99.90;;;;;;5034330;28;20280;-80
2022/05/18 00:58:17;;;;;;;7.87;7.17;;;14.20;99.90;;;;;;5042118;28;20280;-77
2022/05/18 01:00:47;;;;;;;9.77;7.43;;;14.20;99.90;;;;;;5041812;28;20219;-80
2022/05/18 01:03:19;;;;;;;7.60;7.00;;;14.10;99.90;;;;;;5041968;28;20196;-80
2022/05/18 01:05:50;;;;;;;7.80;7.10;;;14.10;99.90;;;;;;5042399;28;20253;-79
2022/05/18 01:08:24;;;;;;;8.13;7.47;;;14.00;99.90;;;;;;5033472;28;20300;-80
2022/05/18 01:10:50;;;;;;;8.20;7.50;;;14.00;99.90;;;;;;5048004;28;20265;-79
2022/05/18 01:13:17;;;;;;;7.97;7.37;;;14.00;99.90;;;;;;5041951;28;20545;-80
2022/05/18 01:15:46;;;;;;;8.77;8.00;;;13.90;99.90;;;;;;5041734;28;20188;-80
2022/05/18 01:18:13;;;;;;;8.57;7.77;;;13.90;99.90;;;;;;5043418;28;20185;-80
2022/05/18 01:20:43;;;;;;;7.90;7.30;;;13.90;99.90;;;;;;5045070;28;20265;-80
2022/05/18 01:23:26;;;;;;;8.67;7.97;;;13.80;99.90;;;;;;5043762;28;20199;-79
2022/05/18 01:26:07;;;;;;;8.50;7.80;;;13.80;99.90;;;;;;5045167;28;20196;-80
2022/05/18 01:28:39;;;;;;;8.40;7.80;;;13.80;99.90;;;;;;5035152;28;20615;-79
2022/05/18 01:31:06;;;;;;;8.17;7.57;;;13.80;99.90;;;;;;5042419;28;20224;-80
2022/05/18 01:33:34;;;;;;;8.43;7.73;;;13.80;99.90;;;;;;5043566;28;20671;-79
2022/05/18 01:36:01;;;;;;;8.40;7.80;;;13.80;99.90;;;;;;5041538;28;20200;-80
2022/05/18 01:38:28;;;;;;;8.30;7.70;;;13.70;99.90;;;;;;5044944;28;20195;-78
2022/05/18 01:41:00;;;;;;;9.17;8.47;;;13.70;99.90;;;;;;5042244;28;20226;-79
2022/05/18 01:43:32;;;;;;;8.60;7.90;;;13.70;99.90;;;;;;5045986;28;20606;-80
2022/05/18 01:46:02;;;;;;;8.60;7.90;;;13.70;99.90;;;;;;5042801;28;20195;-80
2022/05/18 01:48:31;;;;;;;8.57;7.93;;;13.70;99.90;;;;;;5039798;28;20201;-80
2022/05/18 01:50:59;;;;;;;8.77;8.07;;;13.70;99.90;;;;;;5037993;28;20223;-79
2022/05/18 01:53:27;;;;;;;8.47;7.87;;;13.70;99.90;;;;;;5045810;28;20192;-79
2022/05/18 01:55:54;;;;;;;8.90;8.07;;;13.70;99.90;;;;;;5041038;28;20250;-80
2022/05/18 01:58:22;;;;;;;8.67;7.97;;;13.70;99.90;;;;;;5041130;28;20271;-80
2022/05/18 02:00:49;;;;;;;8.97;8.30;;;13.60;99.90;;;;;;5041904;28;20224;-80
2022/05/18 02:03:19;;;;;;;9.17;8.47;;;13.60;99.90;;;;;;5041867;28;20701;-80
2022/05/18 02:05:45;;;;;;;8.87;8.27;;;13.50;99.90;;;;;;5034870;28;20197;-80
2022/05/18 02:08:13;;;;;;;9.13;8.30;;;13.50;99.90;;;;;;5042059;28;20661;-79
2022/05/18 02:10:40;;;;;;;8.77;8.17;;;13.50;99.90;;;;;;5039886;28;20245;-80
2022/05/18 02:13:07;;;;;;;8.67;8.07;;;13.50;99.90;;;;;;5041871;28;20195;-80
2022/05/18 02:15:35;;;;;;;8.70;8.10;;;13.50;99.90;;;;;;5044293;28;20197;-80
2022/05/18 02:18:02;;;;;;;8.63;8.03;;;13.40;99.90;;;;;;5034972;28;20200;-81
2022/05/18 02:20:30;;;;;;;8.87;8.23;;;13.40;99.90;;;;;;5042456;28;20242;-80
2022/05/18 02:22:57;;;;;;;9.37;8.77;;;13.40;99.90;;;;;;5039833;28;20221;-80
2022/05/18 02:25:26;;;;;;;8.67;7.97;;;13.40;99.90;;;;;;5036544;28;20196;-80
2022/05/18 02:27:54;;;;;;;8.93;8.23;;;13.30;99.90;;;;;;5043144;28;20292;-80
2022/05/18 02:30:22;;;;;;;10.07;9.17;;;13.30;99.90;;;;;;5041677;28;20713;-80
2022/05/18 02:32:49;;;;;;;9.37;8.67;;;13.30;99.90;;;;;;5042968;28;20242;-79
2022/05/18 02:35:16;;;;;;;9.00;8.30;;;13.20;99.90;;;;;;5041947;28;20265;-80
2022/05/18 02:37:44;;;;;;;8.80;8.20;;;13.20;99.90;;;;;;5036494;28;20198;-80
2022/05/18 02:40:12;;;;;;;9.70;9.00;;;13.20;99.90;;;;;;5042806;28;20579;-81
2022/05/18 02:42:39;;;;;;;8.67;8.07;;;13.10;99.90;;;;;;5039027;28;20215;-78
2022/05/18 02:45:08;;;;;;;9.73;8.83;;;13.10;99.90;;;;;;5034787;28;20744;-79
2022/05/18 02:47:34;;;;;;;8.80;8.10;;;13.10;99.90;;;;;;5037233;28;20191;-80
2022/05/18 02:50:01;;;;;;;9.20;8.60;;;13.10;99.90;;;;;;5039040;28;20219;-79
2022/05/18 02:52:28;;;;;;;9.23;8.60;;;13.10;99.90;;;;;;5033658;28;20302;-81
2022/05/18 02:57:41;;;;;;;9.53;8.83;;;13.00;99.90;;;;;;5036836;28;20372;-79
2022/05/18 03:00:09;;;;;;;9.87;9.17;;;13.00;99.90;;;;;;5037775;28;20200;-79
2022/05/18 03:02:36;;;;;;;9.47;8.67;;;12.90;99.90;;;;;;5035639;28;20225;-79
2022/05/18 03:05:04;;;;;;;9.53;8.87;;;12.90;99.90;;;;;;5038756;28;20294;-80
2022/05/18 03:07:31;;;;;;;9.80;9.10;;;12.90;99.90;;;;;;5030947;28;20605;-80
2022/05/18 03:10:00;;;;;;;9.80;9.10;;;12.90;99.90;;;;;;5033331;28;20785;-80
2022/05/18 03:12:27;;;;;;;9.90;9.00;;;12.90;99.90;;;;;;5034470;28;20238;-80
2022/05/18 03:14:54;;;;;;;10.13;9.40;;;13.00;99.90;;;;;;5048031;28;20203;-80
2022/05/18 03:17:21;;;;;;;9.87;9.17;;;13.00;99.90;;;;;;5045815;28;20201;-81
2022/05/18 03:19:48;;;;;;;10.93;10.13;;;12.90;99.90;;;;;;5043114;28;20198;-82
2022/05/18 03:25:02;;;;;;;10.90;9.90;;;12.90;99.90;;;;;;5044223;28;20202;-81
2022/05/18 03:27:29;;;;;;;10.40;9.70;;;12.90;99.90;;;;;;5047346;28;20258;-80
2022/05/18 03:29:56;;;;;;;9.97;9.27;;;12.80;99.90;;;;;;5044518;28;20206;-80
2022/05/18 03:32:23;;;;;;;10.70;9.90;;;12.80;99.90;;;;;;5045873;28;20214;-80
2022/05/18 03:34:50;;;;;;;10.07;9.37;;;12.70;99.90;;;;;;5041691;28;20235;-81
2022/05/18 03:37:18;;;;;;;10.63;9.83;;;12.70;99.90;;;;;;5047101;28;20207;-81
2022/05/18 03:39:45;;;;;;;11.07;10.03;;;12.70;99.90;;;;;;5045407;28;20205;-82
2022/05/18 03:42:13;;;;;;;11.80;10.90;;;12.70;99.90;;;;;;5047207;28;20258;-81
2022/05/18 03:44:40;;;;;;;11.23;10.40;;;12.70;99.90;;;;;;5044106;28;20567;-80
2022/05/18 03:47:09;;;;;;;10.70;9.83;;;12.70;99.90;;;;;;5043954;28;20291;-80
2022/05/18 03:49:36;;;;;;;11.10;10.20;;;12.70;99.90;;;;;;5037300;28;20660;-81
2022/05/18 03:52:04;;;;;;;10.60;9.70;;;12.70;99.90;;;;;;5042488;28;20242;-81
2022/05/18 03:54:32;;;;;;;10.50;9.70;;;12.70;99.90;;;;;;5045866;28;20227;-80
2022/05/18 03:57:00;;;;;;;10.20;9.50;;;12.70;99.90;;;;;;5047429;28;20215;-80
2022/05/18 03:59:28;;;;;;;10.77;10.03;;;12.80;99.90;;;;;;5039745;28;20579;-79
2022/05/18 04:01:55;;;;;;;10.73;9.83;;;12.80;99.90;;;;;;5046735;28;20225;-78
2022/05/18 04:04:22;;;;;;;10.30;9.50;;;12.90;99.90;;;;;;5043222;28;20209;-78
2022/05/18 04:06:49;;;;;;;10.20;9.47;;;12.90;99.90;;;;;;5049888;28;20203;-78
2022/05/18 04:09:17;;;;;;;10.27;9.47;;;12.90;99.90;;;;;;5043610;28;20664;-78
2022/05/18 04:11:44;;;;;;;10.17;9.40;;;12.90;99.90;;;;;;5042661;28;20215;-78
2022/05/18 04:14:11;;;;;;;10.03;9.33;;;12.90;99.90;;;;;;5045747;28;20199;-78
2022/05/18 04:16:39;;;;;;;11.00;9.90;;;13.00;99.90;;;;;;5047775;28;20209;-80
2022/05/18 04:19:06;;;;;;;9.80;9.10;;;13.00;99.90;;;;;;5048281;28;20202;-78
2022/05/18 04:21:33;;;;;;;10.73;9.83;;;13.10;99.90;;;;;;5043427;28;20211;-78
2022/05/18 04:24:00;;;;;;;10.70;9.87;;;13.10;99.90;;;;;;5048482;28;20226;-78
2022/05/18 04:26:27;;;;;;;10.20;9.40;;;13.20;99.90;;;;;;5049916;28;20331;-78
2022/05/18 04:28:53;;;;;;;10.80;10.00;;;13.20;99.90;;;;;;5049058;28;20271;-79
2022/05/18 04:31:20;;;;;;;10.87;9.97;;;13.30;99.90;;;;;;5042414;28;20211;-78
2022/05/18 04:33:49;;;;;;;10.73;10.00;;;13.30;99.90;;;;;;5052816;28;20246;-79
2022/05/18 04:36:15;;;;;;;10.87;10.07;;;13.40;99.90;;;;;;5043625;28;20645;-77
2022/05/18 04:38:42;;;;;;;10.80;9.87;;;13.50;99.90;;;;;;5047847;28;20214;-78
2022/05/18 04:41:11;;;;;;;11.17;10.37;;;13.50;99.90;;;;;;5047321;28;20680;-80
2022/05/18 04:43:38;;;;;;;11.33;10.47;;;13.50;99.90;;;;;;5047375;28;20200;-77
2022/05/18 04:46:07;;;;;;;10.40;9.70;;;13.60;99.90;;;;;;5047304;28;20204;-79
2022/05/18 04:48:35;;;;;;;10.60;9.90;;;13.70;99.90;;;;;;5051613;28;20200;-78
2022/05/18 04:51:05;;;;;;;10.00;9.20;;;13.90;99.90;;;;;;5049058;28;20237;-78
2022/05/18 04:53:33;;;;;;;10.80;10.00;;;14.00;99.90;;;;;;5042202;28;20286;-78
2022/05/18 04:56:00;;;;;;;10.30;9.60;;;14.20;99.90;;;;;;5041956;28;20232;-79
2022/05/18 04:58:27;;;;;;;5.70;4.50;;;14.30;99.90;;;;;;5047774;28;20200;-80
2022/05/18 05:00:59;;;;;;;5.93;4.20;;;14.40;99.90;;;;;;5047048;28;20246;-78
2022/05/18 05:03:26;;;;;;;4.60;4.20;;;14.60;99.90;;;;;;5047508;28;20196;-78
2022/05/18 05:05:53;;;;;;;4.77;4.23;;;14.70;99.90;;;;;;5045033;28;20296;-78
2022/05/18 05:08:22;;;;;;;7.40;6.80;;;14.80;99.90;;;;;;5052249;28;20298;-79
2022/05/18 05:10:49;;;;;;;8.13;6.60;;;14.90;99.90;;;;;;5046267;28;20231;-79
2022/05/18 05:13:16;;;;;;;6.10;5.60;;;14.90;99.90;;;;;;5042812;28;20202;-78
2022/05/18 05:15:44;;;;;;;7.60;7.00;;;15.10;99.90;;;;;;5039562;28;20204;-79
2022/05/18 05:18:11;;;;;;;6.57;5.97;;;15.30;99.90;;;;;;5040080;28;20204;-80
2022/05/18 05:20:38;;;;;;;5.40;5.00;;;15.50;99.90;;;;;;5049741;28;20286;-80
2022/05/18 05:23:05;;;;;;;6.17;5.67;;;15.80;99.90;;;;;;5047051;28;20223;-80
2022/05/18 05:25:34;;;;;;;4.90;4.17;;;15.90;99.90;;;;;;5050529;28;20232;-80
2022/05/18 05:28:01;;;;;;;4.67;4.20;;;16.10;99.90;;;;;;5047014;28;20195;-80
2022/05/18 05:30:28;;;;;;;4.90;4.20;;;16.20;99.90;;;;;;5056715;28;20210;-79
2022/05/18 05:32:55;;;;;;;5.03;4.53;;;16.30;99.90;;;;;;5048359;28;20247;-79
2022/05/18 05:35:22;;;;;;;4.77;4.23;;;16.40;99.90;;;;;;5047928;28;20542;-80
2022/05/18 05:37:49;;;;;;;4.97;4.23;;;16.60;99.90;;;;;;5043920;28;20205;-80
2022/05/18 05:40:16;;;;;;;6.40;5.80;;;16.80;99.90;;;;;;5049159;28;20270;-79
2022/05/18 05:42:45;;;;;;;5.83;5.20;;;17.00;99.90;;;;;;5046234;28;20718;-79
2022/05/18 05:45:13;;;;;;;5.57;4.70;;;17.40;99.90;;;;;;5049187;28;20643;-79
2022/05/18 05:47:40;;;;;;;7.20;6.60;;;18.00;99.90;;;;;;5038810;28;20202;-79
2022/05/18 05:50:08;;;;;;;8.30;7.60;;;18.40;99.90;;;;;;5045257;28;20201;-79
2022/05/18 05:52:35;;;;;;;6.77;6.10;;;18.60;99.90;;;;;;5046283;28;20225;-81
2022/05/18 05:55:02;;;;;;;5.83;4.10;;;19.00;99.90;;;;;;5046614;28;20674;-79
2022/05/18 05:57:29;;;;;;;7.77;5.67;;;19.20;99.90;;;;;;5048696;28;20228;-79
2022/05/18 05:59:57;;;;;;;7.53;6.83;;;19.30;99.90;;;;;;5047199;28;20214;-80
2022/05/18 06:02:25;;;;;;;5.83;5.43;;;19.30;99.90;;;;;;5048661;28;20226;-81
2022/05/18 06:04:51;;;;;;;8.50;7.90;;;19.30;99.90;;;;;;5045091;28;20217;-79
2022/05/18 06:07:19;;;;;;;7.00;6.30;;;19.50;99.90;;;;;;5043557;28;20199;-80
2022/05/18 06:09:45;;;;;;;8.00;7.30;;;19.60;99.90;;;;;;5053058;28;20699;-79
2022/05/18 06:12:12;;;;;;;8.47;7.73;;;19.60;99.90;;;;;;5053643;28;20310;-81
2022/05/18 06:14:43;;;;;;;8.10;7.30;;;19.60;99.90;;;;;;5037961;28;20195;-79
2022/05/18 06:17:11;;;;;;;7.83;7.10;;;19.60;99.90;;;;;;5046051;28;20207;-79
2022/05/18 06:19:38;;;;;;;7.77;6.63;;;19.70;99.90;;;;;;5041446;28;20203;-79
2022/05/18 06:22:05;;;;;;;6.80;6.20;;;19.80;99.90;;;;;;5046275;28;20242;-80
2022/05/18 06:24:32;;;;;;;6.10;5.47;;;20.10;99.90;;;;;;5048093;28;20198;-80
2022/05/18 06:27:00;;;;;;;7.47;5.57;;;20.60;99.90;;;;;;5048475;28;20309;-79
2022/05/18 06:29:27;;;;;;;6.40;5.90;;;21.10;99.90;;;;;;5047867;28;20198;-79
2022/05/18 06:31:54;;;;;;;4.93;4.40;;;21.50;99.90;;;;;;5048456;28;20484;-80
2022/05/18 06:34:22;;;;;;;7.23;6.57;;;21.80;99.90;;;;;;5043315;28;20200;-79
2022/05/18 06:36:50;;;;;;;8.13;7.37;;;22.20;99.90;;;;;;5044342;28;20311;-81
2022/05/18 06:39:18;;;;;;;7.50;6.90;;;22.60;99.90;;;;;;5045908;28;20200;-81
2022/05/18 06:41:47;;;;;;;7.13;6.30;;;23.00;99.90;;;;;;5044693;28;20230;-80
2022/05/18 06:44:15;;;;;;;7.00;6.30;;;23.40;99.90;;;;;;5046618;28;20277;-79
2022/05/18 06:46:42;;;;;;;8.30;7.60;;;23.60;99.90;;;;;;5042028;28;20203;-81
2022/05/18 06:49:11;;;;;;;8.50;7.80;;;23.70;99.90;;;;;;5042320;28;20212;-81
2022/05/18 06:51:42;;;;;;;7.67;6.97;;;23.90;99.90;;;;;;5036366;28;20237;-79
2022/05/18 06:54:09;;;;;;;5.00;4.53;;;24.10;99.90;;;;;;5041080;28;20580;-80
2022/05/18 06:56:39;;;;;;;7.37;5.67;;;24.40;99.90;;;;;;5053463;28;20192;-79
2022/05/18 06:59:08;;;;;;;5.33;4.30;;;24.60;99.90;;;;;;5040500;28;20234;-80
2022/05/18 07:01:36;;;;;;;6.40;3.83;;;24.90;99.90;;;;;;5047434;28;20216;-81
2022/05/18 07:04:04;;;;;;;5.50;4.27;;;25.30;99.90;;;;;;5046499;28;20206;-80
2022/05/18 07:06:33;;;;;;;5.80;5.23;;;25.40;99.90;;;;;;5040831;28;20461;-80
2022/05/18 07:09:03;;;;;;;7.03;5.03;;;25.60;99.90;;;;;;5041511;28;20268;-79
2022/05/18 07:11:30;;;;;;;7.93;5.83;;;25.50;99.90;;;;;;5046609;28;20265;-80
2022/05/18 07:13:58;;;;;;;6.60;4.07;;;25.70;99.90;;;;;;5045351;28;20196;-80
2022/05/18 07:16:27;;;;;;;6.23;4.43;;;25.80;99.90;;;;;;5046390;28;20657;-82
2022/05/18 07:18:55;;;;;;;5.93;4.23;;;25.80;99.90;;;;;;5039976;28;20226;-79
2022/05/18 07:21:23;;;;;;;5.83;4.83;;;25.90;99.90;;;;;;5040919;28;20490;-80
2022/05/18 07:23:50;;;;;;;4.57;4.07;;;26.00;99.90;;;;;;5038215;28;20235;-82
2022/05/18 07:26:19;;;;;;;4.60;3.90;;;25.90;99.90;;;;;;5038234;28;20218;-80
2022/05/18 07:28:47;;;;;;;4.27;3.63;;;26.20;99.90;;;;;;5048487;28;20282;-81
2022/05/18 07:31:14;;;;;;;5.17;3.77;;;26.30;99.90;;;;;;5047658;28;20219;-81
2022/05/18 07:33:42;;;;;;;4.03;3.73;;;26.50;99.90;;;;;;5038024;28;20196;-81
2022/05/18 07:36:09;;;;;;;3.97;3.57;;;26.40;99.90;;;;;;5038174;28;20294;-80
2022/05/18 07:38:38;;;;;;;7.43;6.93;;;26.50;99.90;;;;;;5044279;28;20196;-80
2022/05/18 07:41:07;;;;;;;5.47;4.67;;;26.70;99.90;;;;;;5038165;28;20220;-81
2022/05/18 07:43:35;;;;;;;5.10;3.90;;;26.70;99.90;;;;;;5046776;28;20222;-79
2022/05/18 07:46:02;;;;;;;6.40;5.63;;;26.70;99.90;;;;;;5047654;28;20293;-81
2022/05/18 07:48:30;;;;;;;8.40;3.50;;;26.90;99.90;;;;;;5042228;28;20206;-79
2022/05/18 07:50:57;;;;;;;4.13;3.53;;;27.10;99.90;;;;;;5042757;28;20239;-81
2022/05/18 07:53:25;;;;;;;7.53;6.83;;;27.10;99.90;;;;;;5046913;28;20424;-78
2022/05/18 07:55:52;;;;;;;5.10;3.43;;;27.30;99.90;;;;;;5047834;28;20200;-79
2022/05/18 07:58:20;;;;;;;4.40;4.10;;;27.50;99.90;;;;;;5049150;28;20282;-80
2022/05/18 08:00:49;;;;;;;4.30;3.40;;;27.50;99.90;;;;;;5040374;28;20227;-80
2022/05/18 08:03:17;;;;;;;4.37;3.80;;;27.60;99.90;;;;;;5040971;28;20222;-79
2022/05/18 08:05:45;;;;;;;4.13;3.73;;;27.80;99.90;;;;;;5035616;28;20207;-80
2022/05/18 08:08:15;;;;;;;5.23;4.73;;;28.10;99.90;;;;;;5035520;28;20196;-80
2022/05/18 08:16:14;;;;;;;9.50;8.80;;;28.20;99.90;;;;;;5038198;28;20214;-80
2022/05/18 08:18:41;;;;;;;9.67;8.90;;;28.50;99.90;;;;;;5046513;28;20199;-80
2022/05/18 08:21:09;;;;;;;9.27;8.67;;;28.70;99.90;;;;;;5042061;28;20215;-80
2022/05/18 08:23:35;;;;;;;9.60;8.87;;;28.80;99.90;;;;;;5045951;28;20203;-80
2022/05/18 08:26:03;;;;;;;9.50;8.80;;;29.10;99.90;;;;;;5042544;28;20207;-79
2022/05/18 08:28:30;;;;;;;9.37;8.67;;;29.30;99.90;;;;;;5045323;28;20203;-80
2022/05/18 08:30:57;;;;;;;9.47;8.70;;;29.30;99.50;;;;;;5042101;28;20219;-80
2022/05/18 08:33:25;;;;;;;9.33;8.73;;;29.40;99.50;;;;;;5044095;28;20203;-81
2022/05/18 08:35:54;;;;;;;9.47;8.77;;;29.20;99.30;;;;;;5040252;28;20195;-81
2022/05/18 08:38:22;;;;;;;9.30;8.70;;;29.50;99.90;;;;;;5037464;28;20287;-81
2022/05/18 08:40:53;;;;;;;9.77;9.07;;;29.60;98.20;;;;;;5044980;28;20250;-81
2022/05/18 08:43:26;;;;;;;9.17;8.43;;;29.90;96.90;;;;;;5047181;28;20216;-81
2022/05/18 08:46:05;;;;;;;8.93;8.23;;;29.70;98.10;;;;;;5043558;28;20200;-81
2022/05/18 08:48:43;;;;;;;9.23;8.50;;;29.80;97.90;;;;;;5044024;28;20235;-81
2022/05/18 08:51:26;;;;;;;9.00;8.40;;;29.90;99.10;;;;;;5042544;28;20227;-81
2022/05/18 08:54:05;;;;;;;8.80;8.20;;;30.00;96.70;;;;;;5033744;28;20203;-81
2022/05/18 08:56:37;;;;;;;8.90;8.30;;;30.30;97.80;;;;;;5042404;28;20203;-81
2022/05/18 08:59:10;;;;;;;8.17;7.67;;;30.20;94.40;;;;;;5044744;28;20207;-79
2022/05/18 09:01:40;;;;;;;8.50;7.90;;;29.50;93.80;;;;;;5031554;28;20712;-82
2022/05/18 09:04:12;;;;;;;8.63;8.10;;;29.60;96.50;;;;;;5061503;28;20219;-83
2022/05/18 09:06:46;;;;;;;9.50;8.70;;;30.10;96.80;;;;;;5037377;28;20585;-82
2022/05/18 09:12:03;;;;;;;8.70;8.10;;;30.00;95.80;;;;;;5044646;28;20223;-81
2022/05/18 09:14:37;;;;;;;8.20;7.70;;;29.90;92.00;;;;;;5040435;28;20198;-82
2022/05/18 09:17:14;;;;;;;8.20;7.70;;;29.60;92.50;;;;;;5039892;28;20196;-81
2022/05/18 09:19:53;;;;;;;8.43;7.83;;;29.50;94.20;;;;;;5050707;28;20211;-82
2022/05/18 09:22:30;;;;;;;8.47;7.70;;;29.80;94.10;;;;;;5041922;28;20223;-82
2022/05/18 09:25:08;;;;;;;8.10;7.60;;;30.00;93.10;;;;;;5040347;28;20203;-81
2022/05/18 09:27:46;;;;;;;8.30;7.70;;;30.10;91.20;;;;;;5037416;28;20201;-82
2022/05/18 09:30:19;;;;;;;8.43;7.73;;;30.00;91.90;;;;;;5036525;28;20556;-82
2022/05/18 09:33:08;;;;;;;8.10;7.60;;;30.00;90.00;;;;;;5044123;28;20265;-83
2022/05/18 09:36:10;;;;;;;8.93;8.17;;;30.20;91.50;;;;;;5039987;28;20207;-82
2022/05/18 09:38:42;;;;;;;8.93;8.33;;;30.40;93.70;;;;;;5028461;28;20194;-82
2022/05/18 09:41:15;;;;;;;8.87;8.17;;;30.60;91.70;;;;;;5038346;28;20709;-81
2022/05/18 09:43:47;;;;;;;8.80;8.20;;;30.30;90.50;;;;;;5034193;28;20588;-82
2022/05/18 09:46:21;;;;;;;8.60;8.10;;;30.30;91.20;;;;;;5041053;28;20200;-81
2022/05/18 09:48:53;;;;;;;8.13;7.63;;;30.60;91.20;;;;;;5040839;28;20200;-82
2022/05/18 09:51:22;;;;;;;8.33;7.73;;;30.50;91.10;;;;;;5041562;28;20232;-81
2022/05/18 09:53:50;;;;;;;8.70;8.10;;;30.40;91.40;;;;;;5042984;28;20249;-81
2022/05/18 09:56:22;;;;;;;8.20;7.70;;;30.60;91.10;;;;;;5044592;28;20199;-82
2022/05/18 09:58:51;;;;;;;8.27;7.67;;;30.70;91.60;;;;;;5040137;28;20199;-82
2022/05/18 10:09:51;;;;;;;6.93;6.43;;;30.40;90.40;;;;;;5034136;28;20289;-81
2022/05/18 10:12:23;;;;;;;7.50;7.00;;;30.50;92.20;;;;;;5040100;28;20227;-81
2022/05/18 10:14:58;;;;;;;8.50;7.80;;;30.60;92.30;;;;;;5038111;28;20203;-82
2022/05/18 10:17:32;;;;;;;8.83;8.13;;;30.10;94.20;;;;;;5040874;28;20285;-82
2022/05/18 10:20:05;;;;;;;8.60;7.90;;;30.00;94.60;;;;;;5040680;28;20206;-82
2022/05/18 10:22:39;;;;;;;7.00;6.60;;;29.90;92.70;;;;;;5042973;28;20211;-81
2022/05/18 10:25:11;;;;;;;7.20;6.60;;;30.00;90.10;;;;;;5045786;28;20669;-81
2022/05/18 10:27:41;;;;;;;7.03;6.43;;;30.00;90.30;;;;;;5033048;28;20205;-82
2022/05/18 10:30:14;;;;;;;6.97;6.47;;;29.80;89.40;;;;;;5042287;28;20237;-81
2022/05/18 10:32:55;;;;;;;7.23;6.63;;;29.90;90.10;;;;;;5050858;28;20216;-81
2022/05/18 10:35:34;;;;;;;7.50;6.90;;;29.90;91.30;;;;;;5041256;28;20200;-81
2022/05/18 10:38:15;;;;;;;7.00;6.60;;;29.90;91.40;;;;;;5044126;28;20217;-81
2022/05/18 10:40:42;;;;;;;6.90;6.30;;;30.00;93.60;;;;;;5038220;28;20203;-81
2022/05/18 10:43:29;;;;;;;7.00;6.50;;;30.20;91.60;;;;;;5041959;28;20219;-81
2022/05/18 10:46:00;;;;;;;7.10;6.60;;;29.90;90.60;;;;;;5028888;28;20214;-82
2022/05/18 10:48:29;;;;;;;3.00;2.60;;;29.50;90.60;;;;;;5035564;28;20200;-81
2022/05/18 10:51:07;;;;;;;3.10;2.73;;;29.40;90.90;;;;;;5043431;28;20333;-82
2022/05/18 10:53:40;;;;;;;4.73;2.80;;;29.40;91.20;;;;;;5042931;28;20278;-80
2022/05/18 10:56:10;;;;;;;5.20;4.13;;;29.20;90.00;;;;;;5044600;28;20213;-82
2022/05/18 10:58:45;;;;;;;7.40;6.90;;;29.10;89.60;;;;;;5038288;28;20208;-81
2022/05/18 11:01:17;;;;;;;3.37;3.07;;;28.60;91.20;;;;;;5047208;28;20257;-81
2022/05/18 11:03:52;;;;;;;4.47;3.13;;;28.40;90.40;;;;;;5042105;28;20311;-81
2022/05/18 11:06:22;;;;;;;2.77;2.57;;;28.00;90.30;;;;;;5041301;28;20583;-81
2022/05/18 11:08:51;;;;;;;5.50;5.00;;;27.90;91.70;;;;;;5045958;28;20192;-81
2022/05/18 11:11:40;;;;;;;4.27;3.70;;;27.90;90.70;;;;;;5040808;28;20282;-81
2022/05/18 11:14:16;;;;;;;2.70;2.50;;;28.10;90.70;;;;;;5044141;28;20206;-81
2022/05/18 11:16:52;;;;;;;2.87;2.57;;;28.10;88.00;;;;;;5043676;28;20245;-81
2022/05/18 11:19:36;;;;;;;6.97;6.37;;;28.00;89.10;;;;;;5042994;28;20305;-81
2022/05/18 11:22:18;;;;;;;6.70;6.30;;;27.90;90.40;;;;;;5040339;28;20226;-82
2022/05/18 11:24:54;;;;;;;5.70;5.20;;;28.00;90.10;;;;;;5030183;28;20230;-81
2022/05/18 11:27:28;;;;;;;6.60;6.20;;;28.10;90.30;;;;;;5040703;28;20223;-80
2022/05/18 11:30:05;;;;;;;5.80;5.30;;;27.90;90.30;;;;;;5038784;28;20199;-82
2022/05/18 11:32:50;;;;;;;7.00;6.40;;;27.90;90.00;;;;;;5039867;28;20223;-81
2022/05/18 11:35:30;;;;;;;5.17;3.50;;;27.90;88.30;;;;;;5041057;28;20283;-80
2022/05/18 11:38:16;;;;;;;7.00;6.60;;;27.90;88.60;;;;;;5034479;28;20192;-81
2022/05/18 11:40:51;;;;;;;7.10;6.60;;;27.90;90.40;;;;;;5020278;28;20223;-81
2022/05/18 11:43:33;;;;;;;7.50;6.80;;;27.90;90.20;;;;;;5058801;28;20243;-81
2022/05/18 11:46:23;;;;;;;6.97;6.37;;;27.90;90.90;;;;;;5039861;28;20687;-81
2022/05/18 11:48:55;;;;;;;7.10;6.47;;;27.80;88.70;;;;;;5034836;28;20207;-81
2022/05/18 11:51:33;;;;;;;7.00;6.50;;;27.90;88.90;;;;;;5049387;28;20231;-80
2022/05/18 11:54:13;;;;;;;7.00;6.40;;;27.80;87.60;;;;;;5046630;28;20603;-81
2022/05/18 11:56:49;;;;;;;7.13;6.53;;;27.80;90.50;;;;;;5027823;28;20289;-81
2022/05/18 11:59:52;;;;;;;6.50;6.10;;;27.90;90.70;;;;;;5033845;28;20195;-82
2022/05/18 12:02:54;;;;;;;7.03;6.53;;;28.00;90.30;;;;;;5035217;28;20322;-83
2022/05/18 12:05:41;;;;;;;6.27;5.70;;;27.90;89.00;;;;;;5035373;28;20227;-84
2022/05/18 12:08:35;;;;;;;5.00;4.60;;;27.70;88.20;;;;;;5042328;28;20306;-82
2022/05/18 12:11:11;;;;;;;7.10;6.60;;;27.70;89.40;;;;;;5035959;28;20227;-83
2022/05/18 12:13:49;;;;;;;2.33;2.23;;;27.60;87.60;;;;;;5029473;28;20664;-80
2022/05/18 12:16:27;;;;;;;2.77;2.53;;;27.50;89.00;;;;;;5036017;28;20196;-81
2022/05/18 12:18:59;;;;;;;4.43;4.03;;;27.50;90.20;;;;;;5037873;28;20209;-82
2022/05/18 12:21:31;;;;;;;4.17;2.80;;;27.20;88.40;;;;;;5040981;28;20220;-81
2022/05/18 12:24:03;;;;;;;2.87;2.60;;;27.20;88.80;;;;;;5043960;28;20222;-81
2022/05/18 12:26:32;;;;;;;2.60;2.40;;;27.20;88.40;;;;;;5038331;28;20629;-81
2022/05/18 12:29:01;;;;;;;6.30;5.90;;;27.20;87.30;;;;;;5041053;28;20207;-81
2022/05/18 12:31:29;;;;;;;4.50;4.10;;;27.20;88.90;;;;;;5041224;28;20252;-81
2022/05/18 12:34:18;;;;;;;2.03;1.93;;;27.20;90.00;;;;;;5041064;28;20627;-81
2022/05/18 12:36:51;;;;;;;3.13;2.33;;;27.20;89.50;;;;;;5038926;28;20275;-81
2022/05/18 12:39:21;;;;;;;2.40;2.20;;;27.10;89.50;;;;;;5039197;28;20286;-81
2022/05/18 12:41:52;;;;;;;4.93;2.10;;;27.10;90.20;;;;;;5047031;28;20309;-81
2022/05/18 12:44:27;;;;;;;2.30;2.10;;;27.20;90.30;;;;;;5046525;28;20264;-81
2022/05/18 12:47:01;;;;;;;2.47;2.23;;;27.30;90.50;;;;;;5048790;28;20737;-81
2022/05/18 12:49:32;;;;;;;2.53;2.17;;;27.30;89.90;;;;;;5043522;28;20207;-81
2022/05/18 12:52:04;;;;;;;2.43;2.10;;;27.30;89.40;;;;;;5042389;28;20231;-81
2022/05/18 12:54:42;;;;;;;2.53;2.33;;;27.20;88.90;;;;;;5045482;28;20692;-81
2022/05/18 12:57:20;;;;;;;2.23;2.13;;;27.30;89.00;;;;;;5044323;28;20199;-80
2022/05/18 13:00:11;;;;;;;3.00;2.40;;;27.20;87.10;;;;;;5036029;28;20200;-80
2022/05/18 13:02:43;;;;;;;4.10;3.80;;;27.10;88.20;;;;;;5026093;28;20212;-81
2022/05/18 13:05:31;;;;;;;4.50;4.10;;;27.10;91.00;;;;;;5041724;28;20220;-80
2022/05/18 13:08:04;;;;;;;4.60;4.30;;;27.20;90.00;;;;;;5037548;28;20321;-80
2022/05/18 13:10:35;;;;;;;4.50;4.20;;;27.20;90.70;;;;;;5044918;28;20261;-80
2022/05/18 13:13:05;;;;;;;2.80;2.50;;;27.10;89.90;;;;;;5042964;28;20322;-81
2022/05/18 13:15:53;;;;;;;3.87;2.40;;;27.10;90.00;;;;;;5045351;28;20200;-80
2022/05/18 13:18:28;;;;;;;2.60;2.40;;;27.20;90.00;;;;;;5046258;28;20207;-81
2022/05/18 13:21:00;;;;;;;3.10;2.37;;;27.20;91.00;;;;;;5042708;28;20632;-79
2022/05/18 13:23:42;;;;;;;2.83;2.53;;;27.10;90.10;;;;;;5040973;28;20210;-79
2022/05/18 13:26:24;;;;;;;2.50;2.30;;;27.00;90.00;;;;;;5040378;28;20207;-80